Time;durP1;ratioP1;P1;durP2;ratioP2;P2;SDS_P1;SDS_P2;PMS_P1;PMS_P2;Temp;Humidity;BMP_temperature;BMP_pressure;BME280_temperature;BME280_humidity;BME280_pressure;Samples;Min_cycle;Max_cycle;Signal;HPM_P1;HPM_P2
2021/01/02 00:01:20;;;;;;;6.53;5.80;;;3.60;99.90;;;;;;5038888;28;20429;-70
2021/01/02 00:04:07;;;;;;;10.20;6.70;;;3.60;99.90;;;;;;5056213;28;20442;-71
2021/01/02 00:06:52;;;;;;;6.77;5.53;;;3.60;99.90;;;;;;5055118;28;20397;-71
2021/01/02 00:09:22;;;;;;;6.13;5.17;;;3.50;99.90;;;;;;5054622;28;20471;-70
2021/01/02 00:11:59;;;;;;;7.87;6.20;;;3.60;99.90;;;;;;5055050;28;20485;-70
2021/01/02 00:14:51;;;;;;;6.30;5.60;;;3.60;99.90;;;;;;5055472;28;20432;-71
2021/01/02 00:17:42;;;;;;;7.53;5.40;;;3.60;99.90;;;;;;5055014;28;20413;-71
2021/01/02 00:20:53;;;;;;;10.50;5.60;;;3.60;99.90;;;;;;5056048;28;21000;-71
2021/01/02 00:23:44;;;;;;;8.50;6.13;;;3.60;99.90;;;;;;4994068;28;20502;-70
2021/01/02 00:26:22;;;;;;;8.10;6.03;;;3.50;99.90;;;;;;4993868;28;20455;-72
2021/01/02 00:28:49;;;;;;;8.63;5.63;;;3.40;99.90;;;;;;5040602;28;20440;-71
2021/01/02 00:31:43;;;;;;;7.53;6.73;;;3.40;99.90;;;;;;5055283;28;20472;-70
2021/01/02 00:34:17;;;;;;;8.60;5.43;;;3.40;99.90;;;;;;5053758;28;20463;-71
2021/01/02 00:37:01;;;;;;;8.33;6.40;;;3.30;99.90;;;;;;5054166;28;20397;-71
2021/01/02 00:39:47;;;;;;;8.30;5.73;;;3.30;99.90;;;;;;5053928;28;20458;-70
2021/01/02 00:42:14;;;;;;;10.00;6.40;;;3.30;99.90;;;;;;5054388;28;20397;-71
2021/01/02 00:44:42;;;;;;;8.50;5.80;;;3.30;99.90;;;;;;5053800;28;20431;-71
2021/01/02 00:47:10;;;;;;;12.70;4.73;;;3.30;99.90;;;;;;5053685;28;20397;-70
2021/01/02 00:49:36;;;;;;;7.50;5.07;;;3.30;99.90;;;;;;5053662;28;20513;-70
2021/01/02 00:52:16;;;;;;;4.97;4.47;;;3.20;99.90;;;;;;5053861;28;20919;-71
2021/01/02 00:55:06;;;;;;;5.77;4.87;;;3.20;99.90;;;;;;5053898;28;20893;-71
2021/01/02 00:57:50;;;;;;;7.47;4.83;;;3.20;99.90;;;;;;5054097;28;20439;-70
2021/01/02 01:00:17;;;;;;;7.67;5.47;;;3.20;99.90;;;;;;5053385;28;20423;-70
2021/01/02 01:03:14;;;;;;;4.47;4.00;;;3.10;99.90;;;;;;5035392;28;20409;-70
2021/01/02 01:05:46;;;;;;;7.00;4.27;;;3.10;99.90;;;;;;5053179;28;20405;-71
2021/01/02 01:08:15;;;;;;;6.20;4.10;;;3.10;99.90;;;;;;5053039;28;20398;-71
2021/01/02 01:10:42;;;;;;;15.07;5.20;;;3.10;99.90;;;;;;5052657;28;20425;-71
2021/01/02 01:13:19;;;;;;;4.67;4.23;;;3.00;99.90;;;;;;5052923;28;20459;-71
2021/01/02 01:15:45;;;;;;;6.53;4.90;;;3.00;99.90;;;;;;5053134;28;20877;-71
2021/01/02 01:18:17;;;;;;;5.30;4.80;;;3.00;99.90;;;;;;5052870;28;20750;-71
2021/01/02 01:20:53;;;;;;;7.13;5.50;;;3.00;99.90;;;;;;5052834;28;20455;-71
2021/01/02 01:23:55;;;;;;;5.50;5.00;;;2.90;99.90;;;;;;5053696;28;20407;-71
2021/01/02 01:26:57;;;;;;;7.00;5.27;;;2.80;99.90;;;;;;5053795;28;20404;-71
2021/01/02 01:29:40;;;;;;;4.77;3.90;;;2.80;99.90;;;;;;5057396;28;20508;-71
2021/01/02 01:32:07;;;;;;;4.47;4.03;;;2.70;99.90;;;;;;5057488;28;20449;-71
2021/01/02 01:34:33;;;;;;;8.27;4.97;;;2.70;99.90;;;;;;5057452;28;20912;-71
2021/01/02 01:37:05;;;;;;;7.27;4.80;;;2.70;99.90;;;;;;5057120;28;20444;-71
2021/01/02 01:39:32;;;;;;;7.00;4.57;;;2.60;99.90;;;;;;5040286;28;20432;-71
2021/01/02 01:42:03;;;;;;;4.40;4.00;;;2.60;99.90;;;;;;5057556;28;20412;-71
2021/01/02 01:44:41;;;;;;;5.27;4.40;;;2.60;99.90;;;;;;5056738;28;20412;-71
2021/01/02 01:47:16;;;;;;;5.70;5.17;;;2.50;99.90;;;;;;5057126;28;20482;-71
2021/01/02 01:49:59;;;;;;;6.23;5.47;;;2.50;99.90;;;;;;5037127;28;20432;-71
2021/01/02 01:52:37;;;;;;;6.90;5.40;;;2.40;99.90;;;;;;5037245;28;20457;-70
2021/01/02 01:55:07;;;;;;;5.40;4.90;;;2.40;99.90;;;;;;5036577;28;20945;-70
2021/01/02 01:57:40;;;;;;;8.20;5.13;;;2.40;99.90;;;;;;5037062;28;20753;-71
2021/01/02 02:00:17;;;;;;;5.90;4.10;;;2.40;99.90;;;;;;5036560;28;20426;-71
2021/01/02 02:02:45;;;;;;;4.87;3.70;;;2.30;99.90;;;;;;5036862;28;20901;-70
2021/01/02 02:05:17;;;;;;;4.80;4.30;;;2.30;99.90;;;;;;5036492;28;20507;-71
2021/01/02 02:08:06;;;;;;;5.90;3.93;;;2.30;99.90;;;;;;5036370;28;20445;-72
2021/01/02 02:10:34;;;;;;;6.27;3.87;;;2.40;99.90;;;;;;5018215;28;20434;-72
2021/01/02 02:13:10;;;;;;;7.20;4.40;;;2.40;99.90;;;;;;5036095;28;20853;-76
2021/01/02 02:15:46;;;;;;;6.23;4.40;;;2.30;99.90;;;;;;5051164;28;20425;-72
2021/01/02 02:18:18;;;;;;;4.33;3.80;;;2.30;99.90;;;;;;5055860;28;20515;-72
2021/01/02 02:20:47;;;;;;;5.10;4.00;;;2.20;99.90;;;;;;5056396;28;20429;-71
2021/01/02 02:23:14;;;;;;;4.03;3.63;;;2.20;99.90;;;;;;5057824;28;20417;-72
2021/01/02 02:25:48;;;;;;;7.60;5.20;;;2.20;99.90;;;;;;5057600;28;20758;-71
2021/01/02 02:28:34;;;;;;;4.57;4.13;;;2.20;99.90;;;;;;5057276;28;20404;-72
2021/01/02 02:31:05;;;;;;;5.03;4.13;;;2.10;99.90;;;;;;5055448;28;20449;-72
2021/01/02 02:33:34;;;;;;;5.53;4.50;;;2.20;99.90;;;;;;5055573;28;20813;-72
2021/01/02 02:35:59;;;;;;;9.87;4.77;;;2.00;99.90;;;;;;5055585;28;20405;-71
2021/01/02 02:38:26;;;;;;;7.37;4.90;;;2.10;99.90;;;;;;5055701;28;20870;-72
2021/01/02 02:40:52;;;;;;;5.27;4.77;;;2.00;99.90;;;;;;5055508;28;20557;-72
2021/01/02 02:43:18;;;;;;;6.53;5.13;;;1.90;99.90;;;;;;5055748;28;20420;-72
2021/01/02 02:45:48;;;;;;;7.13;5.40;;;2.00;99.90;;;;;;5056124;28;20424;-72
2021/01/02 02:48:17;;;;;;;7.17;5.30;;;2.00;99.90;;;;;;5055515;28;20431;-71
2021/01/02 02:50:47;;;;;;;9.33;6.30;;;1.90;99.90;;;;;;5055379;28;20425;-71
2021/01/02 02:53:16;;;;;;;10.60;7.07;;;2.00;99.90;;;;;;5055142;28;20398;-72
2021/01/02 02:55:42;;;;;;;6.83;5.90;;;2.00;99.90;;;;;;5055112;28;20401;-72
2021/01/02 02:58:08;;;;;;;8.40;6.37;;;1.90;99.90;;;;;;5055012;28;20424;-70
2021/01/02 03:00:35;;;;;;;8.67;6.37;;;1.90;99.90;;;;;;5054905;28;20462;-71
2021/01/02 03:03:02;;;;;;;7.90;6.23;;;1.80;99.90;;;;;;5055545;28;20504;-71
2021/01/02 03:05:28;;;;;;;9.53;7.50;;;1.80;99.90;;;;;;5055375;28;20414;-71
2021/01/02 03:07:53;;;;;;;11.53;7.37;;;1.80;99.90;;;;;;5054645;28;20475;-72
2021/01/02 03:10:21;;;;;;;12.00;7.90;;;1.80;99.90;;;;;;5054934;28;20598;-72
2021/01/02 03:12:48;;;;;;;10.03;8.70;;;1.90;99.90;;;;;;5054778;28;20246;-71
2021/01/02 03:15:16;;;;;;;9.20;7.63;;;1.80;99.90;;;;;;5055185;28;20445;-72
2021/01/02 03:17:43;;;;;;;14.60;8.83;;;1.70;99.90;;;;;;5055160;28;20937;-71
2021/01/02 03:20:10;;;;;;;12.30;9.13;;;1.70;99.90;;;;;;5055212;28;20425;-72
2021/01/02 03:22:40;;;;;;;11.50;7.83;;;1.70;99.90;;;;;;5037643;28;20418;-72
2021/01/02 03:25:08;;;;;;;15.33;9.23;;;1.70;99.90;;;;;;5055615;28;20421;-72
2021/01/02 03:27:33;;;;;;;22.13;10.00;;;1.70;99.90;;;;;;5055145;28;20471;-71
2021/01/02 03:29:58;;;;;;;14.40;10.70;;;1.60;99.90;;;;;;5055474;28;20437;-71
2021/01/02 03:32:24;;;;;;;15.97;11.17;;;1.60;99.90;;;;;;5055077;28;20217;-72
2021/01/02 03:34:49;;;;;;;17.03;11.70;;;1.60;99.90;;;;;;5055869;28;20240;-72
2021/01/02 03:37:15;;;;;;;21.10;12.70;;;1.50;99.90;;;;;;5055554;28;20182;-71
2021/01/02 03:39:40;;;;;;;19.80;12.97;;;1.60;99.90;;;;;;5054515;28;20262;-72
2021/01/02 03:42:09;;;;;;;16.63;12.27;;;1.60;99.90;;;;;;5054503;28;20183;-72
2021/01/02 03:44:35;;;;;;;18.90;12.37;;;1.50;99.90;;;;;;5054769;28;20654;-71
2021/01/02 03:47:08;;;;;;;19.23;13.53;;;1.50;99.90;;;;;;5054898;28;20894;-71
2021/01/02 03:49:34;;;;;;;17.40;13.60;;;1.50;99.90;;;;;;5055087;28;20441;-71
2021/01/02 03:52:04;;;;;;;18.73;12.50;;;1.50;99.90;;;;;;5054763;28;20456;-72
2021/01/02 03:54:30;;;;;;;18.87;11.50;;;1.50;99.90;;;;;;5056145;28;20465;-71
2021/01/02 03:56:56;;;;;;;19.83;13.87;;;1.60;99.90;;;;;;5055098;28;20445;-71
2021/01/02 03:59:22;;;;;;;19.17;13.70;;;1.60;99.90;;;;;;5054399;28;20266;-71
2021/01/02 04:01:55;;;;;;;21.50;13.90;;;1.60;99.90;;;;;;5054455;28;20441;-72
2021/01/02 04:04:21;;;;;;;19.60;14.13;;;1.60;99.90;;;;;;5054302;28;20170;-72
2021/01/02 04:06:47;;;;;;;20.40;13.50;;;1.60;99.90;;;;;;5054889;28;20426;-72
2021/01/02 04:09:13;;;;;;;20.47;13.60;;;1.60;99.90;;;;;;5037218;28;20853;-72
2021/01/02 04:11:42;;;;;;;18.50;13.73;;;1.50;99.90;;;;;;5054769;28;20187;-72
2021/01/02 04:14:09;;;;;;;21.13;12.87;;;1.50;99.90;;;;;;5054943;28;20174;-72
2021/01/02 04:16:36;;;;;;;24.13;13.17;;;1.60;99.90;;;;;;5054088;28;20432;-72
2021/01/02 04:19:02;;;;;;;21.57;13.10;;;1.60;99.90;;;;;;5055182;28;20909;-71
2021/01/02 04:21:28;;;;;;;15.77;12.53;;;1.70;99.90;;;;;;5055384;28;20424;-71
2021/01/02 04:23:54;;;;;;;17.30;13.63;;;1.70;99.90;;;;;;5054946;28;20508;-71
2021/01/02 04:26:21;;;;;;;18.50;13.70;;;1.70;99.90;;;;;;5054810;28;20185;-72
2021/01/02 04:28:47;;;;;;;18.63;11.30;;;1.70;99.90;;;;;;5054853;28;20827;-72
2021/01/02 04:31:13;;;;;;;17.10;11.73;;;1.70;99.90;;;;;;5054643;28;20521;-71
2021/01/02 04:33:38;;;;;;;16.77;12.77;;;1.70;99.90;;;;;;5054113;28;20955;-71
2021/01/02 04:36:04;;;;;;;20.53;14.17;;;1.70;99.90;;;;;;5054723;28;20201;-71
2021/01/02 04:38:30;;;;;;;16.57;13.33;;;1.70;99.90;;;;;;5055134;28;20174;-72
2021/01/02 04:40:56;;;;;;;17.43;11.23;;;1.80;99.90;;;;;;5054728;28;20455;-72
2021/01/02 04:43:23;;;;;;;18.17;11.80;;;1.80;99.90;;;;;;5053934;28;20165;-71
2021/01/02 04:45:49;;;;;;;19.30;12.70;;;1.80;99.90;;;;;;5053829;28;20410;-72
2021/01/02 04:48:15;;;;;;;16.00;11.03;;;1.80;99.90;;;;;;5053528;28;20908;-71
2021/01/02 04:50:41;;;;;;;14.17;11.20;;;1.80;99.90;;;;;;5053449;28;20425;-72
2021/01/02 04:53:06;;;;;;;14.60;10.50;;;1.80;99.90;;;;;;5053156;28;20175;-72
2021/01/02 04:55:33;;;;;;;12.30;9.97;;;1.80;99.90;;;;;;5052852;28;20177;-72
2021/01/02 04:58:02;;;;;;;12.00;10.27;;;1.80;99.90;;;;;;5053159;28;20201;-72
2021/01/02 05:00:28;;;;;;;15.03;9.67;;;1.80;99.90;;;;;;5052780;28;20491;-72
2021/01/02 05:02:54;;;;;;;14.67;10.10;;;1.90;99.90;;;;;;5054165;28;20413;-71
2021/01/02 05:05:19;;;;;;;13.20;9.60;;;1.90;99.90;;;;;;5057549;28;20533;-72
2021/01/02 05:07:45;;;;;;;16.30;10.30;;;1.90;99.90;;;;;;5057614;28;20413;-72
2021/01/02 05:10:10;;;;;;;15.37;10.00;;;2.00;99.90;;;;;;5057407;28;20186;-72
2021/01/02 05:12:36;;;;;;;16.47;10.43;;;2.00;99.90;;;;;;5057382;28;20264;-72
2021/01/02 05:15:12;;;;;;;14.57;10.17;;;2.00;99.90;;;;;;5057015;28;20636;-70
2021/01/02 05:17:39;;;;;;;11.73;9.73;;;2.00;99.90;;;;;;5056785;28;20170;-71
2021/01/02 05:20:13;;;;;;;14.10;9.80;;;2.00;99.90;;;;;;5056384;28;21052;-72
2021/01/02 05:22:41;;;;;;;12.83;10.40;;;2.00;99.90;;;;;;5056640;28;20413;-72
2021/01/02 05:25:20;;;;;;;12.53;8.57;;;2.00;99.90;;;;;;5056580;28;20452;-72
2021/01/02 05:27:51;;;;;;;13.50;10.60;;;2.00;99.90;;;;;;5055140;28;20913;-71
2021/01/02 05:30:17;;;;;;;12.87;8.10;;;2.00;99.90;;;;;;5056611;28;20459;-70
2021/01/02 05:32:59;;;;;;;11.70;9.30;;;2.00;99.90;;;;;;5054401;28;20457;-70
2021/01/02 05:35:26;;;;;;;12.13;9.20;;;2.00;99.90;;;;;;5056415;28;20412;-70
2021/01/02 05:37:52;;;;;;;11.67;8.30;;;2.00;99.90;;;;;;5056667;28;20413;-70
2021/01/02 05:40:35;;;;;;;10.50;8.07;;;2.00;99.90;;;;;;5057912;28;20432;-71
2021/01/02 05:43:01;;;;;;;14.37;9.00;;;2.10;99.90;;;;;;5057540;28;20634;-71
2021/01/02 05:45:28;;;;;;;12.20;8.63;;;2.10;99.90;;;;;;5038678;28;20417;-70
2021/01/02 05:47:58;;;;;;;13.90;9.30;;;2.00;99.90;;;;;;5056575;28;20744;-71
2021/01/02 05:50:24;;;;;;;11.63;10.43;;;2.00;99.90;;;;;;5056613;28;20433;-71
2021/01/02 05:52:51;;;;;;;12.63;9.03;;;2.00;99.90;;;;;;5056702;28;20861;-71
2021/01/02 05:55:31;;;;;;;16.10;9.73;;;2.00;99.90;;;;;;5056931;28;20408;-71
2021/01/02 05:58:15;;;;;;;10.30;8.63;;;1.90;99.90;;;;;;5056438;28;20398;-71
2021/01/02 06:00:43;;;;;;;12.87;9.40;;;2.00;99.90;;;;;;5056157;28;20435;-70
2021/01/02 06:03:21;;;;;;;11.40;9.20;;;1.90;99.90;;;;;;5056504;28;20404;-70
2021/01/02 06:06:02;;;;;;;14.03;10.50;;;1.90;99.90;;;;;;5056527;28;20760;-71
2021/01/02 06:08:32;;;;;;;12.10;8.70;;;1.90;99.90;;;;;;5056491;28;20401;-71
2021/01/02 06:11:02;;;;;;;15.87;9.13;;;1.90;99.90;;;;;;5056454;28;20516;-70
2021/01/02 06:13:29;;;;;;;15.67;11.83;;;1.80;99.90;;;;;;5055339;28;20398;-70
2021/01/02 06:16:00;;;;;;;12.50;10.00;;;1.80;99.90;;;;;;5056004;28;20405;-70
2021/01/02 06:18:28;;;;;;;13.00;9.10;;;1.80;99.90;;;;;;5056275;28;20405;-71
2021/01/02 06:20:59;;;;;;;11.83;7.93;;;1.80;99.90;;;;;;5056369;28;20422;-71
2021/01/02 06:23:25;;;;;;;13.80;9.63;;;1.90;99.90;;;;;;5056258;28;20627;-71
2021/01/02 06:25:53;;;;;;;15.50;9.80;;;1.90;99.90;;;;;;5056726;28;20405;-71
2021/01/02 06:28:18;;;;;;;11.27;8.80;;;1.90;99.90;;;;;;5056999;28;20171;-71
2021/01/02 06:30:44;;;;;;;14.00;9.30;;;1.90;99.90;;;;;;5058390;28;20542;-71
2021/01/02 06:33:16;;;;;;;9.27;8.17;;;1.80;99.90;;;;;;5057687;28;20226;-70
2021/01/02 06:35:42;;;;;;;12.93;8.23;;;1.80;99.90;;;;;;5058371;28;20174;-70
2021/01/02 06:38:13;;;;;;;10.53;9.30;;;1.80;99.90;;;;;;5055718;28;20761;-70
2021/01/02 06:40:45;;;;;;;13.70;8.80;;;1.80;99.90;;;;;;5055950;28;20426;-71
2021/01/02 06:43:13;;;;;;;11.50;8.90;;;1.90;99.90;;;;;;5055830;28;20394;-70
2021/01/02 06:45:38;;;;;;;14.17;9.40;;;1.90;99.90;;;;;;5056106;28;20408;-71
2021/01/02 06:48:12;;;;;;;14.10;10.40;;;2.00;99.90;;;;;;5056336;28;20401;-71
2021/01/02 06:50:45;;;;;;;12.40;9.33;;;2.00;99.90;;;;;;5055690;28;20240;-71
2021/01/02 06:53:20;;;;;;;14.17;9.37;;;2.00;99.90;;;;;;5055457;28;20453;-71
2021/01/02 06:56:13;;;;;;;13.80;9.43;;;2.10;99.90;;;;;;5055157;28;20492;-70
2021/01/02 06:58:47;;;;;;;11.43;9.83;;;2.20;99.90;;;;;;5054949;28;20402;-71
2021/01/02 07:01:15;;;;;;;14.13;9.70;;;2.20;99.90;;;;;;5055166;28;20437;-71
2021/01/02 07:03:44;;;;;;;11.57;8.77;;;2.30;99.90;;;;;;5055260;28;20459;-71
2021/01/02 07:06:24;;;;;;;11.10;8.77;;;2.20;99.90;;;;;;5054972;28;20487;-71
2021/01/02 07:08:49;;;;;;;12.20;9.57;;;2.20;99.90;;;;;;5052303;28;20437;-71
2021/01/02 07:11:27;;;;;;;15.63;9.93;;;2.20;99.90;;;;;;5054963;28;20999;-72
2021/01/02 07:14:08;;;;;;;9.60;8.50;;;2.20;99.90;;;;;;5055793;28;20635;-71
2021/01/02 07:16:52;;;;;;;12.43;8.73;;;2.30;99.90;;;;;;5055720;28;20444;-72
2021/01/02 07:19:24;;;;;;;12.10;8.90;;;2.40;99.90;;;;;;5036465;28;20426;-72
2021/01/02 07:22:20;;;;;;;12.43;9.07;;;2.30;99.90;;;;;;5036059;28;20933;-72
2021/01/02 07:24:52;;;;;;;14.83;8.87;;;2.30;99.90;;;;;;5035157;28;20847;-72
2021/01/02 07:27:20;;;;;;;11.97;8.83;;;2.20;99.90;;;;;;5051169;28;20418;-71
2021/01/02 07:29:51;;;;;;;14.40;8.43;;;2.20;99.90;;;;;;5055230;28;20461;-71
2021/01/02 07:32:22;;;;;;;12.13;9.10;;;2.20;99.90;;;;;;5054228;28;20891;-70
2021/01/02 07:34:49;;;;;;;13.07;9.70;;;2.10;99.90;;;;;;5055035;28;20402;-71
2021/01/02 07:37:21;;;;;;;12.07;10.37;;;2.20;99.90;;;;;;5055208;28;20401;-71
2021/01/02 07:39:54;;;;;;;13.20;10.07;;;2.20;99.90;;;;;;5055106;28;20426;-72
2021/01/02 07:42:22;;;;;;;12.60;10.07;;;2.10;99.90;;;;;;5054646;28;20406;-70
2021/01/02 07:45:00;;;;;;;14.43;10.60;;;2.10;99.90;;;;;;5054711;28;20409;-70
2021/01/02 07:47:26;;;;;;;14.33;10.40;;;2.10;99.90;;;;;;5036497;28;20422;-70
2021/01/02 07:49:59;;;;;;;15.80;10.00;;;2.10;99.90;;;;;;5054518;28;20927;-70
2021/01/02 07:52:25;;;;;;;11.70;8.90;;;2.10;99.90;;;;;;5054166;28;20445;-70
2021/01/02 07:54:50;;;;;;;14.13;10.00;;;1.90;99.90;;;;;;5054535;28;20418;-71
2021/01/02 07:57:22;;;;;;;15.30;10.97;;;1.90;99.90;;;;;;5054225;28;20254;-70
2021/01/02 07:59:48;;;;;;;14.97;10.40;;;1.70;99.90;;;;;;5053890;28;20212;-71
2021/01/02 08:02:23;;;;;;;11.87;10.60;;;1.70;99.90;;;;;;5019721;28;20422;-70
2021/01/02 08:04:49;;;;;;;13.53;10.20;;;1.70;99.90;;;;;;5053755;28;20649;-71
2021/01/02 08:07:15;;;;;;;16.70;10.40;;;1.70;99.90;;;;;;5053953;28;20406;-71
2021/01/02 08:09:44;;;;;;;13.07;10.87;;;1.80;99.90;;;;;;5053791;28;20439;-71
2021/01/02 08:12:11;;;;;;;12.80;10.27;;;1.80;99.90;;;;;;5053705;28;20226;-71
2021/01/02 08:14:41;;;;;;;12.93;10.77;;;1.70;99.90;;;;;;5053710;28;20413;-71
2021/01/02 08:17:09;;;;;;;12.90;10.87;;;1.70;99.90;;;;;;5053894;28;20859;-71
2021/01/02 08:19:40;;;;;;;13.23;10.67;;;1.70;99.90;;;;;;5054459;28;20427;-71
2021/01/02 08:22:08;;;;;;;13.37;10.97;;;1.70;99.90;;;;;;5054077;28;20401;-71
2021/01/02 08:24:34;;;;;;;14.27;10.90;;;1.70;99.90;;;;;;5053968;28;20425;-71
2021/01/02 08:27:02;;;;;;;14.33;10.70;;;1.70;99.90;;;;;;5054656;28;20930;-70
2021/01/02 08:29:28;;;;;;;14.10;10.40;;;1.80;99.90;;;;;;5053975;28;20505;-71
2021/01/02 08:31:59;;;;;;;13.70;10.43;;;1.80;99.90;;;;;;5053874;28;20460;-71
2021/01/02 08:34:28;;;;;;;16.00;10.73;;;1.80;99.90;;;;;;5036025;28;20436;-71
2021/01/02 08:36:58;;;;;;;14.93;11.10;;;1.80;99.90;;;;;;5053704;28;20405;-71
2021/01/02 08:39:24;;;;;;;14.97;10.80;;;1.90;99.90;;;;;;5052012;28;20790;-70
2021/01/02 08:41:53;;;;;;;15.33;11.70;;;1.90;99.90;;;;;;5051806;28;20413;-70
2021/01/02 08:44:31;;;;;;;14.30;10.93;;;2.00;99.90;;;;;;5052144;28;20189;-71
2021/01/02 08:46:57;;;;;;;17.70;11.73;;;2.00;99.90;;;;;;5051732;28;20409;-70
2021/01/02 08:49:30;;;;;;;16.53;11.37;;;2.00;99.90;;;;;;5033954;28;20444;-70
2021/01/02 08:52:19;;;;;;;13.37;11.07;;;1.90;99.90;;;;;;5052194;28;20544;-70
2021/01/02 08:54:46;;;;;;;16.13;11.23;;;1.90;99.90;;;;;;5052162;28;20807;-71
2021/01/02 08:57:32;;;;;;;13.63;11.53;;;1.90;99.90;;;;;;5052040;28;20393;-70
2021/01/02 09:00:24;;;;;;;14.43;11.50;;;2.00;99.90;;;;;;5051734;28;20921;-70
2021/01/02 09:03:10;;;;;;;14.20;10.50;;;1.90;99.90;;;;;;5047817;28;20504;-70
2021/01/02 09:05:37;;;;;;;13.83;10.20;;;2.00;99.90;;;;;;5051627;28;20809;-70
2021/01/02 09:08:08;;;;;;;12.60;10.00;;;2.10;99.90;;;;;;5052094;28;20441;-71
2021/01/02 09:10:44;;;;;;;14.80;10.20;;;2.10;99.90;;;;;;5052665;28;20438;-71
2021/01/02 09:13:22;;;;;;;16.30;11.70;;;2.20;99.90;;;;;;5053414;28;20964;-71
2021/01/02 09:16:06;;;;;;;13.03;10.73;;;2.20;99.90;;;;;;5053203;28;20429;-70
2021/01/02 09:18:31;;;;;;;16.23;11.27;;;2.30;99.90;;;;;;5052818;28;20410;-71
2021/01/02 09:20:59;;;;;;;12.40;11.10;;;2.40;99.90;;;;;;5053257;28;20433;-71
2021/01/02 09:23:35;;;;;;;16.63;12.43;;;2.60;99.90;;;;;;5053547;28;20515;-69
2021/01/02 09:26:02;;;;;;;14.87;10.17;;;2.90;99.90;;;;;;5053187;28;20393;-69
2021/01/02 09:28:27;;;;;;;12.23;9.40;;;2.80;99.90;;;;;;5053126;28;20440;-70
2021/01/02 09:30:53;;;;;;;11.07;9.30;;;2.90;99.90;;;;;;5054125;28;20422;-70
2021/01/02 09:33:19;;;;;;;15.60;10.43;;;2.90;99.90;;;;;;5054196;28;20503;-70
2021/01/02 09:35:47;;;;;;;14.40;9.90;;;2.80;99.90;;;;;;5054647;28;20408;-70
2021/01/02 09:38:13;;;;;;;13.67;10.90;;;2.90;99.90;;;;;;5054308;28;20175;-71
2021/01/02 09:40:43;;;;;;;11.43;9.30;;;2.90;99.90;;;;;;5053186;28;20536;-71
2021/01/02 09:43:14;;;;;;;13.10;10.70;;;2.90;99.90;;;;;;5054414;28;20913;-71
2021/01/02 09:45:40;;;;;;;14.33;10.63;;;2.90;99.90;;;;;;5053408;28;20492;-70
2021/01/02 09:48:07;;;;;;;12.97;10.20;;;3.00;99.90;;;;;;5052984;28;20409;-70
2021/01/02 09:50:33;;;;;;;13.13;9.40;;;2.90;99.90;;;;;;5056957;28;21006;-70
2021/01/02 09:52:59;;;;;;;13.57;10.27;;;2.90;99.90;;;;;;5056166;28;20598;-71
2021/01/02 09:55:25;;;;;;;15.27;10.60;;;3.10;99.90;;;;;;5055438;28;20423;-70
2021/01/02 09:57:51;;;;;;;13.07;9.60;;;3.10;99.90;;;;;;5045053;28;20497;-71
2021/01/02 10:00:18;;;;;;;13.40;10.83;;;3.10;99.90;;;;;;5051755;28;20191;-72
2021/01/02 10:02:44;;;;;;;11.30;9.53;;;3.20;99.90;;;;;;5055895;28;20414;-70
2021/01/02 10:05:13;;;;;;;12.50;10.50;;;3.10;99.90;;;;;;5056031;28;20421;-70
2021/01/02 10:07:38;;;;;;;14.73;9.90;;;3.30;99.90;;;;;;5055741;28;20625;-71
2021/01/02 10:10:04;;;;;;;14.30;10.53;;;3.30;99.90;;;;;;5055234;28;20505;-70
2021/01/02 10:12:30;;;;;;;10.73;8.67;;;3.30;99.90;;;;;;5056204;28;20256;-71
2021/01/02 10:14:55;;;;;;;14.73;10.60;;;3.40;99.90;;;;;;5056594;28;20771;-70
2021/01/02 10:17:22;;;;;;;18.47;10.73;;;3.40;99.90;;;;;;5057887;28;20178;-71
2021/01/02 10:19:48;;;;;;;21.23;12.00;;;3.50;99.90;;;;;;5058879;28;20679;-68
2021/01/02 10:22:16;;;;;;;15.00;10.40;;;3.60;99.90;;;;;;5056842;28;20412;-69
2021/01/02 10:24:45;;;;;;;15.80;12.57;;;3.50;99.90;;;;;;5055730;28;20171;-69
2021/01/02 10:27:10;;;;;;;13.73;10.50;;;3.30;99.90;;;;;;5055050;28;20467;-69
2021/01/02 10:29:36;;;;;;;11.07;9.87;;;3.20;99.90;;;;;;5054399;28;20433;-69
2021/01/02 10:32:04;;;;;;;13.03;11.10;;;3.20;99.90;;;;;;5055431;28;20210;-69
2021/01/02 10:34:31;;;;;;;15.70;11.07;;;3.20;99.90;;;;;;5055305;28;20178;-69
2021/01/02 10:36:56;;;;;;;12.83;10.20;;;3.30;99.90;;;;;;5056724;28;20807;-69
2021/01/02 10:39:23;;;;;;;18.40;11.57;;;3.30;99.90;;;;;;5055322;28;20434;-69
2021/01/02 10:41:50;;;;;;;15.50;11.67;;;3.40;99.90;;;;;;5056176;28;20937;-69
2021/01/02 10:44:17;;;;;;;16.60;10.13;;;3.40;99.90;;;;;;5055123;28;20424;-69
2021/01/02 10:46:44;;;;;;;16.17;12.30;;;3.30;99.90;;;;;;5055444;28;20401;-70
2021/01/02 10:49:11;;;;;;;16.10;11.10;;;3.30;99.90;;;;;;5054961;28;20406;-70
2021/01/02 10:51:38;;;;;;;13.60;10.37;;;3.50;99.90;;;;;;5037169;28;20448;-68
2021/01/02 10:54:04;;;;;;;15.30;12.03;;;3.40;99.90;;;;;;5055270;28;20406;-69
2021/01/02 10:56:29;;;;;;;14.20;10.73;;;3.40;99.90;;;;;;5037277;28;20471;-69
2021/01/02 10:58:55;;;;;;;14.93;11.30;;;3.50;99.90;;;;;;5055193;28;20187;-69
2021/01/02 11:01:20;;;;;;;13.30;10.23;;;3.40;99.90;;;;;;5053863;28;20657;-70
2021/01/02 11:03:46;;;;;;;14.37;10.43;;;3.40;99.90;;;;;;5037463;28;20519;-70
2021/01/02 11:06:14;;;;;;;15.83;11.53;;;3.50;99.90;;;;;;5054209;28;20205;-68
2021/01/02 11:08:40;;;;;;;15.50;11.33;;;3.60;99.90;;;;;;5054474;28;20536;-70
2021/01/02 11:11:06;;;;;;;14.50;11.23;;;3.50;99.90;;;;;;5054175;28;20426;-70
2021/01/02 11:13:32;;;;;;;12.63;10.93;;;3.60;99.90;;;;;;5054803;28;20161;-68
2021/01/02 11:15:58;;;;;;;15.63;12.23;;;3.50;99.90;;;;;;5054335;28;20406;-68
2021/01/02 11:18:24;;;;;;;16.13;11.20;;;3.50;99.90;;;;;;5054241;28;20489;-69
2021/01/02 11:20:49;;;;;;;17.03;12.23;;;3.60;99.90;;;;;;5034351;28;20462;-73
2021/01/02 11:23:19;;;;;;;16.10;12.13;;;3.60;99.90;;;;;;5034606;28;20175;-69
2021/01/02 11:25:45;;;;;;;16.87;12.27;;;3.70;99.90;;;;;;5034745;28;20175;-69
2021/01/02 11:28:12;;;;;;;15.80;11.37;;;3.70;99.90;;;;;;5035819;28;20457;-70
2021/01/02 11:30:37;;;;;;;14.80;10.57;;;3.70;99.90;;;;;;5043471;28;20433;-73
2021/01/02 11:33:03;;;;;;;18.20;12.20;;;3.80;99.90;;;;;;5055105;28;20556;-69
2021/01/02 11:35:29;;;;;;;20.40;12.53;;;3.80;99.90;;;;;;5054987;28;20590;-74
2021/01/02 11:37:55;;;;;;;13.10;11.70;;;4.00;99.90;;;;;;5054197;28;20441;-74
2021/01/02 11:40:20;;;;;;;16.93;11.97;;;4.20;99.90;;;;;;5053771;28;20219;-68
2021/01/02 11:42:46;;;;;;;14.10;11.53;;;4.30;99.90;;;;;;5054642;28;20178;-69
2021/01/02 11:45:17;;;;;;;13.63;11.30;;;4.50;99.90;;;;;;5054262;28;20475;-70
2021/01/02 11:47:43;;;;;;;17.47;11.20;;;4.70;99.90;;;;;;5053779;28;20631;-69
2021/01/02 11:50:09;;;;;;;16.53;12.70;;;4.50;99.90;;;;;;5055531;28;20440;-69
2021/01/02 11:52:35;;;;;;;15.20;12.10;;;4.60;99.90;;;;;;5057239;28;20187;-71
2021/01/02 11:55:01;;;;;;;16.07;11.87;;;4.60;99.90;;;;;;5056158;28;20505;-70
2021/01/02 11:57:27;;;;;;;15.40;11.50;;;4.60;99.90;;;;;;5056582;28;20182;-68
2021/01/02 11:59:52;;;;;;;17.80;13.33;;;4.50;99.90;;;;;;5055443;28;20294;-69
2021/01/02 12:02:18;;;;;;;17.90;12.50;;;4.40;99.90;;;;;;5055195;28;20544;-69
2021/01/02 12:04:44;;;;;;;15.73;11.33;;;4.30;99.90;;;;;;5052953;28;20179;-74
2021/01/02 12:07:10;;;;;;;14.30;11.10;;;4.30;99.90;;;;;;5053223;28;20183;-71
2021/01/02 12:09:36;;;;;;;15.97;11.33;;;4.30;99.90;;;;;;5053339;28;20484;-69
2021/01/02 12:12:02;;;;;;;16.00;10.93;;;4.40;99.90;;;;;;5052814;28;20456;-69
2021/01/02 12:14:31;;;;;;;16.73;11.80;;;4.40;99.90;;;;;;5053663;28;20171;-69
2021/01/02 12:16:58;;;;;;;19.30;11.63;;;4.50;99.90;;;;;;5053767;28;20902;-69
2021/01/02 12:19:30;;;;;;;15.93;13.00;;;4.50;99.90;;;;;;5053422;28;20418;-69
2021/01/02 12:22:01;;;;;;;21.37;13.70;;;4.60;99.90;;;;;;5053543;28;20414;-67
2021/01/02 12:24:27;;;;;;;20.80;15.20;;;4.80;99.90;;;;;;5052329;28;20483;-69
2021/01/02 12:26:56;;;;;;;19.73;13.33;;;5.10;99.90;;;;;;5053915;28;20406;-69
2021/01/02 12:29:23;;;;;;;15.60;11.87;;;5.10;99.90;;;;;;5054155;28;20925;-70
2021/01/02 12:31:52;;;;;;;16.40;12.50;;;4.90;99.90;;;;;;5056709;28;20449;-69
2021/01/02 12:34:20;;;;;;;17.00;12.50;;;4.90;99.90;;;;;;5058100;28;20429;-70
2021/01/02 12:36:46;;;;;;;19.40;11.60;;;4.90;99.90;;;;;;5057384;28;20405;-70
2021/01/02 12:39:15;;;;;;;18.40;11.67;;;4.90;99.90;;;;;;5056044;28;20412;-70
2021/01/02 12:41:40;;;;;;;17.03;12.30;;;4.90;99.90;;;;;;5039628;28;20179;-69
2021/01/02 12:44:06;;;;;;;17.83;11.87;;;4.80;99.90;;;;;;5057611;28;20409;-70
2021/01/02 12:46:43;;;;;;;18.50;12.37;;;4.90;99.90;;;;;;5056656;28;20202;-70
2021/01/02 12:49:10;;;;;;;17.43;12.07;;;5.10;99.90;;;;;;5037395;28;20433;-70
2021/01/02 12:51:35;;;;;;;21.33;13.07;;;5.20;99.90;;;;;;5054058;28;21011;-70
2021/01/02 12:54:01;;;;;;;18.03;11.90;;;5.30;99.90;;;;;;5055183;28;20401;-70
2021/01/02 12:56:26;;;;;;;20.60;13.80;;;5.30;99.90;;;;;;5035938;28;20175;-70
2021/01/02 12:58:52;;;;;;;21.30;12.80;;;5.30;99.90;;;;;;5056363;28;20217;-69